sensor_id;sensor_type;location;lat;lon;timestamp;temperature;humidity
56878;DHT22;42765;44.764;19.676;2022-08-04T00:04:52;22.40;99.90
56878;DHT22;42765;44.764;19.676;2022-08-04T00:07:39;22.80;99.90
56878;DHT22;42765;44.764;19.676;2022-08-04T00:10:07;22.90;99.90
56878;DHT22;42765;44.764;19.676;2022-08-04T00:12:36;23.10;99.90
56878;DHT22;42765;44.764;19.676;2022-08-04T00:15:05;23.20;99.90
56878;DHT22;42765;44.764;19.676;2022-08-04T00:17:39;23.20;99.90
56878;DHT22;42765;44.764;19.676;2022-08-04T00:20:06;23.00;99.90
56878;DHT22;42765;44.764;19.676;2022-08-04T00:22:34;23.40;99.90
56878;DHT22;42765;44.764;19.676;2022-08-04T00:25:04;23.40;99.90
56878;DHT22;42765;44.764;19.676;2022-08-04T00:27:32;23.20;99.90
56878;DHT22;42765;44.764;19.676;2022-08-04T00:29:58;23.40;99.90
56878;DHT22;42765;44.764;19.676;2022-08-04T00:32:25;23.60;99.90
56878;DHT22;42765;44.764;19.676;2022-08-04T00:34:53;23.80;99.90
56878;DHT22;42765;44.764;19.676;2022-08-04T00:37:23;23.70;99.90
56878;DHT22;42765;44.764;19.676;2022-08-04T00:53:17;23.40;99.90
56878;DHT22;42765;44.764;19.676;2022-08-04T01:00:56;23.60;99.90
56878;DHT22;42765;44.764;19.676;2022-08-04T01:14:40;23.70;99.90
56878;DHT22;42765;44.764;19.676;2022-08-04T01:17:19;23.70;99.90
56878;DHT22;42765;44.764;19.676;2022-08-04T01:25:02;23.60;99.90
56878;DHT22;42765;44.764;19.676;2022-08-04T01:28:21;23.10;99.90
56878;DHT22;42765;44.764;19.676;2022-08-04T01:30:26;23.30;99.90
56878;DHT22;42765;44.764;19.676;2022-08-04T01:33:17;23.50;99.90
56878;DHT22;42765;44.764;19.676;2022-08-04T01:35:53;23.50;99.90
56878;DHT22;42765;44.764;19.676;2022-08-04T01:38:29;23.40;99.90
56878;DHT22;42765;44.764;19.676;2022-08-04T01:41:03;23.10;99.90
56878;DHT22;42765;44.764;19.676;2022-08-04T01:43:29;23.10;99.90
56878;DHT22;42765;44.764;19.676;2022-08-04T01:45:58;22.90;99.90
56878;DHT22;42765;44.764;19.676;2022-08-04T01:48:25;22.60;99.90
56878;DHT22;42765;44.764;19.676;2022-08-04T01:50:52;22.40;99.90
56878;DHT22;42765;44.764;19.676;2022-08-04T01:53:19;22.70;99.90
56878;DHT22;42765;44.764;19.676;2022-08-04T01:55:50;22.90;99.90
56878;DHT22;42765;44.764;19.676;2022-08-04T01:58:18;23.10;99.90
56878;DHT22;42765;44.764;19.676;2022-08-04T02:00:59;22.80;99.90
56878;DHT22;42765;44.764;19.676;2022-08-04T02:03:27;22.80;99.90
56878;DHT22;42765;44.764;19.676;2022-08-04T02:08:55;22.30;99.90
56878;DHT22;42765;44.764;19.676;2022-08-04T02:11:24;22.20;99.90
56878;DHT22;42765;44.764;19.676;2022-08-04T02:13:56;22.30;99.90
56878;DHT22;42765;44.764;19.676;2022-08-04T02:16:43;22.30;99.90
56878;DHT22;42765;44.764;19.676;2022-08-04T02:21:56;22.60;99.90
56878;DHT22;42765;44.764;19.676;2022-08-04T02:24:25;22.30;99.90
56878;DHT22;42765;44.764;19.676;2022-08-04T02:26:52;22.20;99.90
56878;DHT22;42765;44.764;19.676;2022-08-04T02:29:39;22.40;99.90
56878;DHT22;42765;44.764;19.676;2022-08-04T02:32:23;22.40;99.90
56878;DHT22;42765;44.764;19.676;2022-08-04T02:34:59;22.40;99.90
56878;DHT22;42765;44.764;19.676;2022-08-04T02:37:33;22.30;99.90
56878;DHT22;42765;44.764;19.676;2022-08-04T02:40:00;22.20;99.90
56878;DHT22;42765;44.764;19.676;2022-08-04T02:42:29;22.10;99.90
56878;DHT22;42765;44.764;19.676;2022-08-04T02:44:57;22.00;99.90
56878;DHT22;42765;44.764;19.676;2022-08-04T02:47:24;22.20;99.90
56878;DHT22;42765;44.764;19.676;2022-08-04T02:49:51;22.20;99.90
56878;DHT22;42765;44.764;19.676;2022-08-04T02:52:19;22.10;99.90
56878;DHT22;42765;44.764;19.676;2022-08-04T02:54:48;22.00;99.90
56878;DHT22;42765;44.764;19.676;2022-08-04T02:57:16;21.80;99.90
56878;DHT22;42765;44.764;19.676;2022-08-04T03:14:38;21.60;99.90
56878;DHT22;42765;44.764;19.676;2022-08-04T03:59:17;22.50;99.90
56878;DHT22;42765;44.764;19.676;2022-08-04T04:10:51;22.70;99.90
56878;DHT22;42765;44.764;19.676;2022-08-04T04:14:04;22.50;99.90
56878;DHT22;42765;44.764;19.676;2022-08-04T04:25:10;22.50;99.90
56878;DHT22;42765;44.764;19.676;2022-08-04T04:30:41;22.60;99.90
56878;DHT22;42765;44.764;19.676;2022-08-04T04:39:00;22.90;99.90
56878;DHT22;42765;44.764;19.676;2022-08-04T04:42:13;22.80;99.90
56878;DHT22;42765;44.764;19.676;2022-08-04T04:47:36;22.50;99.90
56878;DHT22;42765;44.764;19.676;2022-08-04T04:52:55;22.10;99.90
56878;DHT22;42765;44.764;19.676;2022-08-04T04:55:30;21.90;99.90
56878;DHT22;42765;44.764;19.676;2022-08-04T04:57:59;21.90;99.90
56878;DHT22;42765;44.764;19.676;2022-08-04T05:00:53;21.80;99.90
56878;DHT22;42765;44.764;19.676;2022-08-04T05:07:00;21.80;99.90
56878;DHT22;42765;44.764;19.676;2022-08-04T05:10:00;21.90;99.90
56878;DHT22;42765;44.764;19.676;2022-08-04T05:15:18;22.00;99.90
56878;DHT22;42765;44.764;19.676;2022-08-04T05:17:54;22.10;99.90
56878;DHT22;42765;44.764;19.676;2022-08-04T05:20:26;22.20;99.90
56878;DHT22;42765;44.764;19.676;2022-08-04T05:22:57;22.30;99.90
56878;DHT22;42765;44.764;19.676;2022-08-04T05:25:51;22.40;99.90
56878;DHT22;42765;44.764;19.676;2022-08-04T05:28:40;22.50;99.90
56878;DHT22;42765;44.764;19.676;2022-08-04T05:31:17;22.50;99.90
56878;DHT22;42765;44.764;19.676;2022-08-04T05:33:54;22.60;99.90
56878;DHT22;42765;44.764;19.676;2022-08-04T05:36:26;22.60;99.90
56878;DHT22;42765;44.764;19.676;2022-08-04T05:38:56;22.70;99.90
56878;DHT22;42765;44.764;19.676;2022-08-04T05:41:27;22.80;99.90
56878;DHT22;42765;44.764;19.676;2022-08-04T05:43:54;22.90;99.90
56878;DHT22;42765;44.764;19.676;2022-08-04T05:46:20;22.90;99.90
56878;DHT22;42765;44.764;19.676;2022-08-04T05:48:47;23.00;99.90
56878;DHT22;42765;44.764;19.676;2022-08-04T05:51:14;23.10;99.90
56878;DHT22;42765;44.764;19.676;2022-08-04T05:53:42;23.10;99.90
56878;DHT22;42765;44.764;19.676;2022-08-04T05:56:13;23.10;99.90
56878;DHT22;42765;44.764;19.676;2022-08-04T05:58:40;23.20;99.90
56878;DHT22;42765;44.764;19.676;2022-08-04T06:01:09;23.20;99.90
56878;DHT22;42765;44.764;19.676;2022-08-04T06:03:36;23.20;99.90
56878;DHT22;42765;44.764;19.676;2022-08-04T06:06:03;23.30;99.90
56878;DHT22;42765;44.764;19.676;2022-08-04T06:08:30;23.40;99.90
56878;DHT22;42765;44.764;19.676;2022-08-04T06:11:04;23.60;99.90
56878;DHT22;42765;44.764;19.676;2022-08-04T06:13:36;23.70;99.90
56878;DHT22;42765;44.764;19.676;2022-08-04T06:16:05;23.70;99.90
56878;DHT22;42765;44.764;19.676;2022-08-04T06:18:33;23.80;99.90
56878;DHT22;42765;44.764;19.676;2022-08-04T06:23:29;23.90;99.90
56878;DHT22;42765;44.764;19.676;2022-08-04T06:25:57;24.10;99.90
56878;DHT22;42765;44.764;19.676;2022-08-04T08:01:36;25.60;99.90
56878;DHT22;42765;44.764;19.676;2022-08-04T08:06:31;28.60;97.90
56878;DHT22;42765;44.764;19.676;2022-08-04T08:11:25;28.70;97.20
56878;DHT22;42765;44.764;19.676;2022-08-04T08:13:52;28.90;96.00
56878;DHT22;42765;44.764;19.676;2022-08-04T08:16:18;29.00;96.10
56878;DHT22;42765;44.764;19.676;2022-08-04T08:23:39;29.00;94.80
56878;DHT22;42765;44.764;19.676;2022-08-04T08:30:57;29.60;94.30
56878;DHT22;42765;44.764;19.676;2022-08-04T08:33:23;29.70;93.80
56878;DHT22;42765;44.764;19.676;2022-08-04T08:36:15;29.80;93.60
56878;DHT22;42765;44.764;19.676;2022-08-04T08:41:25;29.90;91.90
56878;DHT22;42765;44.764;19.676;2022-08-04T08:47:32;30.20;92.70
56878;DHT22;42765;44.764;19.676;2022-08-04T08:58:53;31.00;90.30
56878;DHT22;42765;44.764;19.676;2022-08-04T09:12:06;31.80;86.80
56878;DHT22;42765;44.764;19.676;2022-08-04T09:14:59;31.90;86.60
56878;DHT22;42765;44.764;19.676;2022-08-04T09:18:41;32.20;87.70
56878;DHT22;42765;44.764;19.676;2022-08-04T09:26:08;32.60;84.30
56878;DHT22;42765;44.764;19.676;2022-08-04T09:28:50;32.80;82.20
56878;DHT22;42765;44.764;19.676;2022-08-04T09:31:23;33.00;78.90
56878;DHT22;42765;44.764;19.676;2022-08-04T09:39:13;33.40;77.50
56878;DHT22;42765;44.764;19.676;2022-08-04T09:41:50;33.60;76.70
56878;DHT22;42765;44.764;19.676;2022-08-04T09:44:47;33.70;75.40
56878;DHT22;42765;44.764;19.676;2022-08-04T09:47:30;34.00;75.50
56878;DHT22;42765;44.764;19.676;2022-08-04T10:00:32;34.70;70.10
56878;DHT22;42765;44.764;19.676;2022-08-04T10:02:59;34.90;70.20
56878;DHT22;42765;44.764;19.676;2022-08-04T10:08:36;35.20;70.50
56878;DHT22;42765;44.764;19.676;2022-08-04T10:11:09;35.00;68.80
56878;DHT22;42765;44.764;19.676;2022-08-04T10:16:52;35.50;68.30
56878;DHT22;42765;44.764;19.676;2022-08-04T10:19:27;35.10;66.00
56878;DHT22;42765;44.764;19.676;2022-08-04T10:27:40;36.00;65.30
56878;DHT22;42765;44.764;19.676;2022-08-04T10:30:10;36.20;65.50
56878;DHT22;42765;44.764;19.676;2022-08-04T10:32:52;36.70;64.10
56878;DHT22;42765;44.764;19.676;2022-08-04T10:35:24;37.20;62.60
56878;DHT22;42765;44.764;19.676;2022-08-04T10:38:24;37.40;63.70
56878;DHT22;42765;44.764;19.676;2022-08-04T10:43:45;38.40;59.70
56878;DHT22;42765;44.764;19.676;2022-08-04T10:46:23;39.00;59.40
56878;DHT22;42765;44.764;19.676;2022-08-04T10:49:01;39.50;58.20
56878;DHT22;42765;44.764;19.676;2022-08-04T10:51:54;39.60;57.30
56878;DHT22;42765;44.764;19.676;2022-08-04T10:54:37;40.30;56.60
56878;DHT22;42765;44.764;19.676;2022-08-04T11:00:00;41.50;55.40
56878;DHT22;42765;44.764;19.676;2022-08-04T11:10:32;43.10;89.20
56878;DHT22;42765;44.764;19.676;2022-08-04T11:13:07;42.40;49.10
56878;DHT22;42765;44.764;19.676;2022-08-04T11:18:18;43.10;48.10
56878;DHT22;42765;44.764;19.676;2022-08-04T11:21:00;43.70;48.20
56878;DHT22;42765;44.764;19.676;2022-08-04T11:23:34;44.20;48.20
56878;DHT22;42765;44.764;19.676;2022-08-04T11:26:05;44.30;48.00
56878;DHT22;42765;44.764;19.676;2022-08-04T11:28:57;43.80;46.80
56878;DHT22;42765;44.764;19.676;2022-08-04T11:31:30;43.10;46.60
56878;DHT22;42765;44.764;19.676;2022-08-04T11:34:12;43.70;65.00
56878;DHT22;42765;44.764;19.676;2022-08-04T11:39:44;44.50;72.40
56878;DHT22;42765;44.764;19.676;2022-08-04T11:42:26;44.60;44.40
56878;DHT22;42765;44.764;19.676;2022-08-04T11:45:05;45.20;54.10
56878;DHT22;42765;44.764;19.676;2022-08-04T11:52:34;44.30;85.30
56878;DHT22;42765;44.764;19.676;2022-08-04T11:55:06;43.90;47.00
56878;DHT22;42765;44.764;19.676;2022-08-04T11:57:33;42.30;47.80
56878;DHT22;42765;44.764;19.676;2022-08-04T12:00:00;40.90;49.00
56878;DHT22;42765;44.764;19.676;2022-08-04T12:03:03;40.00;50.10
56878;DHT22;42765;44.764;19.676;2022-08-04T12:05:38;39.00;51.10
56878;DHT22;42765;44.764;19.676;2022-08-04T12:09:27;38.20;52.60
56878;DHT22;42765;44.764;19.676;2022-08-04T12:11:37;37.20;52.70
56878;DHT22;42765;44.764;19.676;2022-08-04T12:14:30;36.70;52.50
56878;DHT22;42765;44.764;19.676;2022-08-04T12:17:05;36.60;52.90
56878;DHT22;42765;44.764;19.676;2022-08-04T12:19:54;36.50;54.00
56878;DHT22;42765;44.764;19.676;2022-08-04T12:22:24;37.30;54.50
56878;DHT22;42765;44.764;19.676;2022-08-04T12:40:41;47.10;53.30
56878;DHT22;42765;44.764;19.676;2022-08-04T12:52:57;46.60;78.60
56878;DHT22;42765;44.764;19.676;2022-08-04T12:55:28;46.80;70.80
56878;DHT22;42765;44.764;19.676;2022-08-04T13:00:32;48.40;56.50
56878;DHT22;42765;44.764;19.676;2022-08-04T13:07:56;48.10;49.90
56878;DHT22;42765;44.764;19.676;2022-08-04T13:10:23;46.70;66.00
56878;DHT22;42765;44.764;19.676;2022-08-04T13:18:02;48.20;50.50
56878;DHT22;42765;44.764;19.676;2022-08-04T13:20:33;49.00;43.30
56878;DHT22;42765;44.764;19.676;2022-08-04T13:25:36;46.80;41.80
56878;DHT22;42765;44.764;19.676;2022-08-04T13:37:56;46.60;42.70
56878;DHT22;42765;44.764;19.676;2022-08-04T13:40:25;49.70;41.80
56878;DHT22;42765;44.764;19.676;2022-08-04T13:45:23;49.90;39.90
56878;DHT22;42765;44.764;19.676;2022-08-04T13:52:53;51.70;40.50
56878;DHT22;42765;44.764;19.676;2022-08-04T14:02:49;52.10;39.70
56878;DHT22;42765;44.764;19.676;2022-08-04T14:05:23;51.70;40.50
56878;DHT22;42765;44.764;19.676;2022-08-04T14:10:24;51.70;40.30
56878;DHT22;42765;44.764;19.676;2022-08-04T14:15:34;51.90;40.30
56878;DHT22;42765;44.764;19.676;2022-08-04T14:20:58;51.30;39.60
56878;DHT22;42765;44.764;19.676;2022-08-04T14:23:26;49.60;40.20
56878;DHT22;42765;44.764;19.676;2022-08-04T14:28:28;50.40;41.50
56878;DHT22;42765;44.764;19.676;2022-08-04T14:38:53;52.30;39.00
56878;DHT22;42765;44.764;19.676;2022-08-04T14:41:27;52.30;39.20
56878;DHT22;42765;44.764;19.676;2022-08-04T14:43:55;51.80;39.90
56878;DHT22;42765;44.764;19.676;2022-08-04T14:46:23;51.70;40.00
56878;DHT22;42765;44.764;19.676;2022-08-04T14:49:12;48.90;39.00
56878;DHT22;42765;44.764;19.676;2022-08-04T14:54:10;48.90;40.70
56878;DHT22;42765;44.764;19.676;2022-08-04T14:56:39;48.90;41.50
56878;DHT22;42765;44.764;19.676;2022-08-04T14:59:10;49.60;41.40
56878;DHT22;42765;44.764;19.676;2022-08-04T15:01:37;49.80;40.50
56878;DHT22;42765;44.764;19.676;2022-08-04T15:04:04;50.20;40.90
56878;DHT22;42765;44.764;19.676;2022-08-04T15:06:32;50.10;39.80
56878;DHT22;42765;44.764;19.676;2022-08-04T15:09:01;49.50;40.10
56878;DHT22;42765;44.764;19.676;2022-08-04T15:11:27;50.00;40.10
56878;DHT22;42765;44.764;19.676;2022-08-04T15:13:55;50.30;39.20
56878;DHT22;42765;44.764;19.676;2022-08-04T15:16:22;50.50;40.50
56878;DHT22;42765;44.764;19.676;2022-08-04T15:18:49;50.40;39.40
56878;DHT22;42765;44.764;19.676;2022-08-04T15:21:16;50.40;39.70
56878;DHT22;42765;44.764;19.676;2022-08-04T15:23:42;50.50;39.90
56878;DHT22;42765;44.764;19.676;2022-08-04T15:26:15;49.90;39.10
56878;DHT22;42765;44.764;19.676;2022-08-04T15:28:46;46.20;39.00
56878;DHT22;42765;44.764;19.676;2022-08-04T15:31:15;45.00;41.00
56878;DHT22;42765;44.764;19.676;2022-08-04T15:36:30;43.70;43.20
56878;DHT22;42765;44.764;19.676;2022-08-04T15:39:20;43.90;44.30
56878;DHT22;42765;44.764;19.676;2022-08-04T15:49:24;41.10;48.10
56878;DHT22;42765;44.764;19.676;2022-08-04T15:52:01;40.10;47.50
56878;DHT22;42765;44.764;19.676;2022-08-04T15:54:28;40.00;49.40
56878;DHT22;42765;44.764;19.676;2022-08-04T15:56:54;39.30;48.90
56878;DHT22;42765;44.764;19.676;2022-08-04T16:02:34;40.80;57.60
56878;DHT22;42765;44.764;19.676;2022-08-04T16:13:29;39.30;49.90
56878;DHT22;42765;44.764;19.676;2022-08-04T16:15:56;39.60;50.00
56878;DHT22;42765;44.764;19.676;2022-08-04T16:20:53;40.00;48.40
56878;DHT22;42765;44.764;19.676;2022-08-04T16:23:46;38.80;49.00
56878;DHT22;42765;44.764;19.676;2022-08-04T16:29:01;38.00;51.00
56878;DHT22;42765;44.764;19.676;2022-08-04T16:31:27;37.40;50.50
56878;DHT22;42765;44.764;19.676;2022-08-04T16:33:58;37.10;51.90
56878;DHT22;42765;44.764;19.676;2022-08-04T16:36:55;36.70;52.50
56878;DHT22;42765;44.764;19.676;2022-08-04T16:41:47;36.40;52.10
56878;DHT22;42765;44.764;19.676;2022-08-04T16:56:45;36.30;53.20
56878;DHT22;42765;44.764;19.676;2022-08-04T16:59:12;36.30;53.70
56878;DHT22;42765;44.764;19.676;2022-08-04T17:01:48;36.10;53.90
56878;DHT22;42765;44.764;19.676;2022-08-04T17:04:15;36.80;53.50
56878;DHT22;42765;44.764;19.676;2022-08-04T17:06:42;37.40;52.00
56878;DHT22;42765;44.764;19.676;2022-08-04T17:09:13;37.60;51.10
56878;DHT22;42765;44.764;19.676;2022-08-04T17:11:41;36.70;51.20
56878;DHT22;42765;44.764;19.676;2022-08-04T17:14:07;35.80;52.10
56878;DHT22;42765;44.764;19.676;2022-08-04T17:16:38;35.50;51.90
56878;DHT22;42765;44.764;19.676;2022-08-04T17:19:05;35.10;52.00
56878;DHT22;42765;44.764;19.676;2022-08-04T17:21:35;34.90;88.90
56878;DHT22;42765;44.764;19.676;2022-08-04T17:36:26;33.80;54.70
56878;DHT22;42765;44.764;19.676;2022-08-04T17:38:55;33.50;55.10
56878;DHT22;42765;44.764;19.676;2022-08-04T17:41:23;33.40;55.90
56878;DHT22;42765;44.764;19.676;2022-08-04T17:44:00;33.40;56.10
56878;DHT22;42765;44.764;19.676;2022-08-04T17:49:02;33.00;56.60
56878;DHT22;42765;44.764;19.676;2022-08-04T17:54:05;32.80;58.30
56878;DHT22;42765;44.764;19.676;2022-08-04T18:38:51;31.20;62.20
56878;DHT22;42765;44.764;19.676;2022-08-04T18:48:35;30.60;65.20
56878;DHT22;42765;44.764;19.676;2022-08-04T18:51:01;30.40;66.40
56878;DHT22;42765;44.764;19.676;2022-08-04T19:39:44;28.60;70.40
56878;DHT22;42765;44.764;19.676;2022-08-04T19:42:10;28.70;71.70
56878;DHT22;42765;44.764;19.676;2022-08-04T19:47:02;28.50;71.70
56878;DHT22;42765;44.764;19.676;2022-08-04T19:49:28;28.30;71.80
56878;DHT22;42765;44.764;19.676;2022-08-04T19:51:54;28.10;72.50
56878;DHT22;42765;44.764;19.676;2022-08-04T19:54:21;28.10;73.20
56878;DHT22;42765;44.764;19.676;2022-08-04T19:56:46;28.00;73.60
56878;DHT22;42765;44.764;19.676;2022-08-04T19:59:12;27.90;73.30
56878;DHT22;42765;44.764;19.676;2022-08-04T20:01:39;28.00;74.50
56878;DHT22;42765;44.764;19.676;2022-08-04T20:04:05;28.00;74.80
56878;DHT22;42765;44.764;19.676;2022-08-04T20:06:30;27.90;75.80
56878;DHT22;42765;44.764;19.676;2022-08-04T20:08:56;27.80;76.60
56878;DHT22;42765;44.764;19.676;2022-08-04T20:11:22;27.80;75.90
56878;DHT22;42765;44.764;19.676;2022-08-04T20:13:48;27.70;75.40
56878;DHT22;42765;44.764;19.676;2022-08-04T20:16:14;27.70;76.90
56878;DHT22;42765;44.764;19.676;2022-08-04T20:18:41;27.60;76.40
56878;DHT22;42765;44.764;19.676;2022-08-04T20:21:07;27.50;75.10
56878;DHT22;42765;44.764;19.676;2022-08-04T20:23:33;27.40;75.90
56878;DHT22;42765;44.764;19.676;2022-08-04T20:25:59;27.30;75.20
56878;DHT22;42765;44.764;19.676;2022-08-04T20:28:26;27.10;76.40
56878;DHT22;42765;44.764;19.676;2022-08-04T20:30:52;27.10;76.80
56878;DHT22;42765;44.764;19.676;2022-08-04T20:33:18;27.10;77.10
56878;DHT22;42765;44.764;19.676;2022-08-04T20:35:45;27.10;78.50
56878;DHT22;42765;44.764;19.676;2022-08-04T20:38:11;27.10;78.30
56878;DHT22;42765;44.764;19.676;2022-08-04T20:40:37;27.10;78.50
56878;DHT22;42765;44.764;19.676;2022-08-04T20:43:03;27.00;78.10
56878;DHT22;42765;44.764;19.676;2022-08-04T20:45:29;26.90;77.50
56878;DHT22;42765;44.764;19.676;2022-08-04T20:47:55;26.90;78.00
56878;DHT22;42765;44.764;19.676;2022-08-04T20:50:21;26.90;79.30
56878;DHT22;42765;44.764;19.676;2022-08-04T20:52:47;26.80;78.60
56878;DHT22;42765;44.764;19.676;2022-08-04T20:55:13;26.80;79.80
56878;DHT22;42765;44.764;19.676;2022-08-04T20:57:39;26.80;78.70
56878;DHT22;42765;44.764;19.676;2022-08-04T21:00:06;26.80;79.30
56878;DHT22;42765;44.764;19.676;2022-08-04T21:02:33;26.80;79.40
56878;DHT22;42765;44.764;19.676;2022-08-04T21:04:59;26.80;79.00
56878;DHT22;42765;44.764;19.676;2022-08-04T21:07:24;26.80;78.80
56878;DHT22;42765;44.764;19.676;2022-08-04T21:09:50;26.70;79.20
56878;DHT22;42765;44.764;19.676;2022-08-04T21:12:17;26.70;79.30
56878;DHT22;42765;44.764;19.676;2022-08-04T21:14:43;26.60;78.90
56878;DHT22;42765;44.764;19.676;2022-08-04T21:17:10;26.50;79.80
56878;DHT22;42765;44.764;19.676;2022-08-04T21:19:36;26.40;81.00
56878;DHT22;42765;44.764;19.676;2022-08-04T21:22:02;26.40;80.20
56878;DHT22;42765;44.764;19.676;2022-08-04T21:24:29;26.40;80.60
56878;DHT22;42765;44.764;19.676;2022-08-04T21:26:55;26.50;81.40
56878;DHT22;42765;44.764;19.676;2022-08-04T21:29:22;26.50;81.10
56878;DHT22;42765;44.764;19.676;2022-08-04T21:31:48;26.40;80.80
56878;DHT22;42765;44.764;19.676;2022-08-04T21:34:15;26.40;80.70
56878;DHT22;42765;44.764;19.676;2022-08-04T21:36:41;26.30;81.70
56878;DHT22;42765;44.764;19.676;2022-08-04T21:39:08;26.30;81.80
56878;DHT22;42765;44.764;19.676;2022-08-04T21:41:35;26.30;81.20
56878;DHT22;42765;44.764;19.676;2022-08-04T21:44:01;26.20;80.20
56878;DHT22;42765;44.764;19.676;2022-08-04T21:48:54;26.20;81.20
56878;DHT22;42765;44.764;19.676;2022-08-04T21:51:23;26.20;81.60
56878;DHT22;42765;44.764;19.676;2022-08-04T21:53:50;26.20;81.70
56878;DHT22;42765;44.764;19.676;2022-08-04T21:56:16;26.20;82.20
56878;DHT22;42765;44.764;19.676;2022-08-04T21:58:42;26.20;83.30
56878;DHT22;42765;44.764;19.676;2022-08-04T22:01:10;26.20;84.10
56878;DHT22;42765;44.764;19.676;2022-08-04T22:03:44;26.10;84.90
56878;DHT22;42765;44.764;19.676;2022-08-04T22:06:11;26.10;85.70
56878;DHT22;42765;44.764;19.676;2022-08-04T22:08:38;26.00;86.60
56878;DHT22;42765;44.764;19.676;2022-08-04T22:11:20;25.90;87.60
56878;DHT22;42765;44.764;19.676;2022-08-04T22:13:46;25.90;92.80
56878;DHT22;42765;44.764;19.676;2022-08-04T22:16:12;25.70;87.30
56878;DHT22;42765;44.764;19.676;2022-08-04T22:18:38;25.80;86.80
56878;DHT22;42765;44.764;19.676;2022-08-04T22:21:04;25.80;92.60
56878;DHT22;42765;44.764;19.676;2022-08-04T22:23:30;25.80;93.00
56878;DHT22;42765;44.764;19.676;2022-08-04T22:25:57;25.90;92.60
56878;DHT22;42765;44.764;19.676;2022-08-04T22:28:23;25.80;90.30
56878;DHT22;42765;44.764;19.676;2022-08-04T22:30:49;25.70;87.10
56878;DHT22;42765;44.764;19.676;2022-08-04T22:33:15;25.70;86.90
56878;DHT22;42765;44.764;19.676;2022-08-04T22:35:41;25.70;86.70
56878;DHT22;42765;44.764;19.676;2022-08-04T22:38:07;25.60;86.00
56878;DHT22;42765;44.764;19.676;2022-08-04T22:40:33;25.60;86.40
56878;DHT22;42765;44.764;19.676;2022-08-04T22:42:59;25.50;86.80
56878;DHT22;42765;44.764;19.676;2022-08-04T22:45:28;25.60;86.60
56878;DHT22;42765;44.764;19.676;2022-08-04T22:47:54;25.50;86.90
56878;DHT22;42765;44.764;19.676;2022-08-04T22:50:20;25.50;91.20
56878;DHT22;42765;44.764;19.676;2022-08-04T22:55:13;25.40;91.60
56878;DHT22;42765;44.764;19.676;2022-08-04T22:57:38;25.30;88.30
56878;DHT22;42765;44.764;19.676;2022-08-04T23:00:05;25.40;89.20
56878;DHT22;42765;44.764;19.676;2022-08-04T23:02:32;25.50;89.40
56878;DHT22;42765;44.764;19.676;2022-08-04T23:04:58;25.20;87.70
